Time;durP1;ratioP1;P1;durP2;ratioP2;P2;SDS_P1;SDS_P2;PMS_P1;PMS_P2;Temp;Humidity;BMP_temperature;BMP_pressure;BME280_temperature;BME280_humidity;BME280_pressure;Samples;Min_cycle;Max_cycle;Signal;HPM_P1;HPM_P2
2022/01/10 00:00:42;;;;;;;37.53;22.27;;;3.40;99.90;;;;;;5097338;28;20064;-47
2022/01/10 00:03:08;;;;;;;;;;;3.20;99.90;;;;;;5117931;28;20031;-53
2022/01/10 00:05:34;;;;;;;30.42;19.60;;;3.10;99.90;;;;;;5118258;28;19949;-49
2022/01/10 00:08:02;;;;;;;30.00;19.33;;;3.20;99.90;;;;;;5117888;28;20024;-49
2022/01/10 00:10:28;;;;;;;30.35;19.88;;;3.10;99.90;;;;;;5118068;28;20413;-50
2022/01/10 00:12:54;;;;;;;31.58;19.42;;;3.00;99.90;;;;;;5116737;28;20533;-49
2022/01/10 00:15:20;;;;;;;31.85;20.77;;;3.00;99.90;;;;;;5064851;28;20031;-49
2022/01/10 00:17:46;;;;;;;29.70;18.98;;;3.00;99.90;;;;;;5080401;28;20180;-49
2022/01/10 00:20:17;;;;;;;32.45;20.85;;;3.10;99.90;;;;;;5116851;28;20031;-57
2022/01/10 00:22:48;;;;;;;30.73;19.42;;;2.90;99.90;;;;;;5047948;28;20039;-46
2022/01/10 00:25:16;;;;;;;26.55;16.50;;;2.80;99.90;;;;;;5054071;28;20045;-52
2022/01/10 00:27:43;;;;;;;26.77;17.30;;;2.70;99.90;;;;;;5074006;28;20044;-47
2022/01/10 00:30:11;;;;;;;28.42;19.33;;;2.60;99.90;;;;;;5071637;28;20112;-49
2022/01/10 00:32:41;;;;;;;32.42;20.25;;;2.80;99.90;;;;;;5008219;28;20443;-49
2022/01/10 00:35:08;;;;;;;34.85;20.02;;;2.80;99.90;;;;;;5073639;28;20037;-49
2022/01/10 00:37:34;;;;;;;36.75;22.85;;;2.80;99.90;;;;;;5073320;28;20037;-47
2022/01/10 00:40:02;;;;;;;39.28;26.33;;;2.80;99.90;;;;;;5006984;28;20036;-47
2022/01/10 00:42:29;;;;;;;36.22;21.75;;;3.30;99.90;;;;;;5074156;28;20182;-48
2022/01/10 00:44:57;;;;;;;37.67;23.08;;;3.20;99.90;;;;;;5073496;28;20040;-47
2022/01/10 00:47:23;;;;;;;32.60;20.42;;;3.20;99.90;;;;;;5072635;28;20029;-47
2022/01/10 00:49:49;;;;;;;31.13;20.75;;;3.10;99.90;;;;;;5073648;28;20029;-56
2022/01/10 00:52:15;;;;;;;37.72;23.25;;;3.20;99.90;;;;;;5041239;28;20048;-48
2022/01/10 00:54:41;;;;;;;37.05;22.40;;;3.40;99.90;;;;;;5024610;28;20036;-48
2022/01/10 00:57:06;;;;;;;30.40;18.90;;;3.30;99.90;;;;;;5043519;28;20096;-47
2022/01/10 00:59:32;;;;;;;33.40;20.83;;;3.10;99.90;;;;;;5117610;28;20035;-48
2022/01/10 01:01:58;;;;;;;31.73;19.67;;;3.10;99.90;;;;;;5063684;28;20494;-48
2022/01/10 01:04:24;;;;;;;32.08;21.02;;;3.10;99.90;;;;;;5015010;28;20058;-47
2022/01/10 01:06:50;;;;;;;30.58;19.67;;;3.10;99.90;;;;;;5117005;28;20065;-47
2022/01/10 01:09:20;;;;;;;32.53;20.48;;;3.00;99.90;;;;;;5117782;28;20032;-48
2022/01/10 01:14:24;;;;;;;34.85;22.88;;;3.20;99.90;;;;;;5117338;28;20023;-48
2022/01/10 01:17:10;;;;;;;35.13;21.77;;;3.40;99.90;;;;;;5067905;28;20054;-53
2022/01/10 01:25:21;;;;;;;34.17;21.50;;;3.10;99.90;;;;;;5033829;28;20142;-47
2022/01/10 01:27:50;;;;;;;33.17;19.77;;;3.10;99.90;;;;;;5052920;28;20504;-49
2022/01/10 01:30:16;;;;;;;31.95;19.20;;;3.30;99.90;;;;;;5053692;28;20044;-48
2022/01/10 01:32:42;;;;;;;28.60;17.45;;;3.20;99.90;;;;;;4986278;28;20041;-47
2022/01/10 01:35:08;;;;;;;25.17;14.95;;;3.10;99.90;;;;;;5051724;28;20078;-47
2022/01/10 01:37:36;;;;;;;30.98;19.70;;;3.00;99.90;;;;;;5003462;28;20095;-50
2022/01/10 01:40:04;;;;;;;29.60;19.17;;;2.90;99.90;;;;;;5052876;28;20072;-48
2022/01/10 01:42:36;;;;;;;28.30;18.15;;;2.80;99.90;;;;;;5001904;28;20033;-49
2022/01/10 01:45:06;;;;;;;27.10;18.27;;;3.00;99.90;;;;;;5051101;28;20033;-49
2022/01/10 01:47:31;;;;;;;27.90;18.10;;;3.10;99.90;;;;;;4991626;28;20081;-48
2022/01/10 01:49:59;;;;;;;27.40;18.52;;;3.40;99.90;;;;;;4975813;28;20042;-47
2022/01/10 01:52:26;;;;;;;28.90;18.98;;;3.50;99.90;;;;;;4992072;28;20093;-47
2022/01/10 01:54:52;;;;;;;29.77;19.40;;;3.70;99.90;;;;;;4992110;28;20030;-47
2022/01/10 01:57:19;;;;;;;29.35;18.60;;;3.70;99.90;;;;;;5039195;28;20155;-47
2022/01/10 01:59:45;;;;;;;31.17;19.92;;;3.80;99.90;;;;;;5051190;28;20034;-47
2022/01/10 02:02:11;;;;;;;29.63;19.35;;;3.80;99.90;;;;;;5060590;28;20032;-47
2022/01/10 02:04:36;;;;;;;27.13;18.13;;;3.60;99.90;;;;;;5051053;28;20064;-47
2022/01/10 02:07:03;;;;;;;32.78;20.25;;;3.70;99.90;;;;;;5051159;28;20048;-47
2022/01/10 02:09:30;;;;;;;29.15;19.15;;;3.80;99.90;;;;;;5051176;28;20032;-47
2022/01/10 02:11:57;;;;;;;30.02;19.92;;;3.70;99.90;;;;;;5051003;28;20048;-47
2022/01/10 02:14:23;;;;;;;29.75;20.25;;;3.70;99.90;;;;;;5051005;28;20032;-48
2022/01/10 02:16:55;;;;;;;29.10;19.50;;;3.90;99.90;;;;;;5050747;28;20037;-47
2022/01/10 02:19:21;;;;;;;;;;;4.00;99.90;;;;;;5051404;28;20048;-48
2022/01/10 02:21:46;;;;;;;29.58;17.75;;;4.00;99.90;;;;;;5050968;28;19905;-48
2022/01/10 02:24:12;;;;;;;31.20;20.02;;;3.80;99.90;;;;;;5043298;28;20488;-47
2022/01/10 02:26:39;;;;;;;27.40;18.45;;;3.70;99.90;;;;;;5115542;28;20425;-47
2022/01/10 02:29:06;;;;;;;36.50;23.88;;;3.90;99.90;;;;;;5134080;28;20046;-48
2022/01/10 02:31:37;;;;;;;32.45;22.08;;;3.90;99.90;;;;;;5133786;28;20027;-47
2022/01/10 02:34:03;;;;;;;34.70;21.85;;;3.80;99.90;;;;;;5134373;28;20050;-48
2022/01/10 02:36:29;;;;;;;33.05;22.35;;;3.70;99.90;;;;;;5133800;28;20027;-47
2022/01/10 02:39:01;;;;;;;36.42;22.55;;;3.60;99.90;;;;;;5081154;28;20037;-47
2022/01/10 02:41:30;;;;;;;37.83;24.10;;;3.40;99.90;;;;;;5114813;28;20061;-48
2022/01/10 02:43:58;;;;;;;36.30;23.15;;;3.30;99.90;;;;;;5134092;28;20492;-47
2022/01/10 02:46:25;;;;;;;34.80;21.27;;;3.50;99.90;;;;;;5133822;28;20023;-47
2022/01/10 02:48:51;;;;;;;31.13;20.85;;;3.30;99.90;;;;;;5133987;28;20019;-48
2022/01/10 02:51:17;;;;;;;27.98;16.95;;;3.00;99.90;;;;;;5133959;28;20030;-48
2022/01/10 02:53:43;;;;;;;32.63;19.73;;;2.70;99.90;;;;;;5133888;28;20028;-47
2022/01/10 02:56:09;;;;;;;35.88;20.02;;;2.70;99.90;;;;;;5080892;28;20072;-48
2022/01/10 02:58:35;;;;;;;30.10;19.50;;;2.50;99.90;;;;;;5135352;27;20027;-47
2022/01/10 03:01:01;;;;;;;35.33;21.08;;;2.70;99.90;;;;;;5101695;27;20547;-47
2022/01/10 03:03:29;;;;;;;32.67;19.70;;;2.50;99.90;;;;;;5137897;27;20051;-47
2022/01/10 03:05:55;;;;;;;36.20;21.75;;;2.50;99.90;;;;;;5137683;27;20023;-47
2022/01/10 03:08:21;;;;;;;36.05;22.58;;;2.60;99.90;;;;;;5138014;27;20030;-48
2022/01/10 03:10:47;;;;;;;34.58;20.67;;;2.60;99.90;;;;;;5137450;27;20083;-47
2022/01/10 03:13:13;;;;;;;31.30;16.90;;;2.40;99.90;;;;;;5118511;27;20110;-47
2022/01/10 03:15:38;;;;;;;38.25;23.35;;;2.40;99.90;;;;;;5118474;27;20035;-47
2022/01/10 03:18:04;;;;;;;29.70;16.05;;;2.50;99.90;;;;;;5137672;27;20023;-49
2022/01/10 03:20:30;;;;;;;35.20;21.50;;;2.40;99.90;;;;;;5137364;27;20025;-47
2022/01/10 03:22:56;;;;;;;35.58;20.08;;;2.40;99.90;;;;;;5137666;27;20031;-48
2022/01/10 03:25:21;;;;;;;34.75;21.23;;;2.30;99.90;;;;;;5091352;27;20046;-49
2022/01/10 03:27:47;;;;;;;34.70;21.40;;;2.30;99.90;;;;;;5131531;27;20039;-49
2022/01/10 03:30:15;;;;;;;33.67;20.90;;;2.40;99.90;;;;;;5070048;27;20037;-47
2022/01/10 03:32:42;;;;;;;34.67;22.70;;;2.40;99.90;;;;;;5137332;27;20059;-47
2022/01/10 03:35:08;;;;;;;29.02;18.35;;;2.40;99.90;;;;;;5137409;27;20034;-47
2022/01/10 03:37:34;;;;;;;18.13;10.32;;;2.20;99.90;;;;;;5136921;27;20058;-47
2022/01/10 03:40:00;;;;;;;31.90;17.50;;;2.10;99.90;;;;;;5132672;27;20470;-46
2022/01/10 03:42:25;;;;;;;28.48;15.57;;;2.00;99.90;;;;;;5120157;27;20035;-46
2022/01/10 03:44:51;;;;;;;32.58;19.63;;;2.00;99.90;;;;;;5127818;27;20471;-47
2022/01/10 03:47:18;;;;;;;29.80;17.38;;;1.90;99.90;;;;;;5136877;27;20477;-47
2022/01/10 03:49:45;;;;;;;26.73;15.50;;;1.90;99.90;;;;;;5136742;27;20060;-47
2022/01/10 03:52:10;;;;;;;34.95;18.55;;;1.80;99.90;;;;;;5136817;27;20383;-47
2022/01/10 03:54:36;;;;;;;35.03;19.15;;;1.80;99.90;;;;;;5118397;27;20035;-49
2022/01/10 03:57:02;;;;;;;38.05;20.73;;;1.80;99.90;;;;;;5136247;27;20039;-47
2022/01/10 03:59:28;;;;;;;35.00;16.30;;;;;;;;;;5066884;27;20453;-47
2022/01/10 04:01:55;;;;;;;41.17;20.52;;;1.70;99.90;;;;;;5133691;27;20024;-47
2022/01/10 04:04:20;;;;;;;35.38;19.15;;;1.60;99.90;;;;;;5115966;28;20032;-47
2022/01/10 04:06:46;;;;;;;34.83;19.27;;;1.70;99.90;;;;;;5116009;28;20024;-47
2022/01/10 04:09:12;;;;;;;24.40;12.80;;;1.70;99.90;;;;;;5115629;28;20528;-47
2022/01/10 04:11:38;;;;;;;24.88;14.50;;;1.60;99.90;;;;;;5096873;28;20506;-47
2022/01/10 04:14:04;;;;;;;37.85;20.58;;;1.50;99.90;;;;;;5115916;28;20108;-49
2022/01/10 04:16:29;;;;;;;22.75;12.85;;;1.70;99.90;;;;;;5115729;28;20418;-49
2022/01/10 04:18:55;;;;;;;39.22;21.77;;;1.60;99.90;;;;;;5096931;28;20031;-50
2022/01/10 04:21:21;;;;;;;34.10;18.70;;;1.80;99.90;;;;;;5079893;28;20062;-47
2022/01/10 04:23:47;;;;;;;33.03;18.90;;;1.70;99.90;;;;;;5115554;28;20397;-47
2022/01/10 04:26:13;;;;;;;38.63;21.77;;;1.90;99.90;;;;;;5089016;28;20051;-47
2022/01/10 04:28:38;;;;;;;32.92;19.42;;;1.90;99.90;;;;;;5076386;28;20068;-48
2022/01/10 04:31:05;;;;;;;30.13;15.73;;;2.10;99.90;;;;;;5095276;28;20028;-47
2022/01/10 04:33:31;;;;;;;27.95;15.32;;;2.10;99.90;;;;;;5095122;28;20024;-48
2022/01/10 04:35:57;;;;;;;25.10;14.40;;;2.00;99.90;;;;;;5094944;28;20043;-47
2022/01/10 04:38:24;;;;;;;31.20;18.02;;;;;;;;;;5059859;28;20055;-47
2022/01/10 04:40:50;;;;;;;30.90;16.58;;;1.70;99.90;;;;;;5094964;28;20119;-47
2022/01/10 04:43:16;;;;;;;27.00;15.45;;;1.70;99.90;;;;;;5076146;28;20118;-47
2022/01/10 04:45:45;;;;;;;25.58;14.60;;;1.90;99.90;;;;;;5076134;28;20038;-47
2022/01/10 04:48:11;;;;;;;31.00;16.73;;;1.90;99.90;;;;;;5084686;28;20483;-49
2022/01/10 04:51:10;;;;;;;26.65;13.77;;;1.70;99.90;;;;;;5046032;28;20111;-49
2022/01/10 04:53:25;;;;;;;30.80;16.35;;;;;;;;;;5114662;28;20038;-49
2022/01/10 04:55:51;;;;;;;31.98;18.88;;;1.70;99.90;;;;;;5114881;28;20034;-46
2022/01/10 04:58:17;;;;;;;23.95;12.93;;;1.80;99.90;;;;;;5096595;28;20035;-47
2022/01/10 05:00:43;;;;;;;28.00;15.23;;;1.70;99.90;;;;;;5110486;28;20055;-47
2022/01/10 05:03:09;;;;;;;17.70;8.45;;;;;;;;;;5113488;28;20069;-47
2022/01/10 05:05:35;;;;;;;27.83;13.13;;;1.40;99.90;;;;;;5114466;28;20023;-47
2022/01/10 05:08:01;;;;;;;14.05;6.43;;;1.50;99.90;;;;;;5111390;28;20092;-47
2022/01/10 05:10:26;;;;;;;20.20;11.32;;;1.50;99.90;;;;;;5113305;28;20153;-47
2022/01/10 05:12:52;;;;;;;20.65;11.77;;;1.50;99.90;;;;;;5113713;27;20109;-47
2022/01/10 05:15:18;;;;;;;20.30;11.82;;;1.40;99.90;;;;;;5089403;28;20118;-47
2022/01/10 05:17:44;;;;;;;16.08;8.80;;;1.30;99.90;;;;;;5112534;28;20542;-48
2022/01/10 05:20:11;;;;;;;25.10;14.48;;;1.30;99.90;;;;;;5108348;28;20035;-48
2022/01/10 05:22:37;;;;;;;19.17;8.25;;;1.30;99.90;;;;;;5053924;28;20123;-47
2022/01/10 05:25:03;;;;;;;18.25;11.00;;;1.20;99.90;;;;;;5106335;28;20466;-48
2022/01/10 05:27:28;;;;;;;15.80;10.60;;;1.20;99.90;;;;;;5053751;28;20059;-49
2022/01/10 05:29:54;;;;;;;25.27;14.35;;;1.30;99.90;;;;;;5103784;28;20389;-48
2022/01/10 05:32:20;;;;;;;14.75;9.07;;;1.30;99.90;;;;;;5025063;28;20111;-48
2022/01/10 05:34:46;;;;;;;23.02;11.82;;;1.30;99.90;;;;;;5069449;28;20027;-47
2022/01/10 05:37:11;;;;;;;23.00;13.35;;;1.20;99.90;;;;;;5104311;28;20040;-47
2022/01/10 05:39:38;;;;;;;21.38;12.52;;;;;;;;;;5059867;28;20032;-48
2022/01/10 05:42:04;;;;;;;21.88;13.45;;;1.40;99.90;;;;;;5102001;28;20097;-48
2022/01/10 05:44:29;;;;;;;16.05;9.52;;;1.30;99.90;;;;;;5076296;28;20067;-48
2022/01/10 05:46:58;;;;;;;20.10;12.40;;;1.40;99.90;;;;;;5071359;28;20041;-49
2022/01/10 05:49:29;;;;;;;18.33;8.20;;;1.40;99.90;;;;;;5106748;28;20032;-48
2022/01/10 05:51:54;;;;;;;10.48;6.15;;;1.30;99.90;;;;;;5103279;28;20050;-50
2022/01/10 05:54:20;;;;;;;21.30;12.45;;;1.10;99.90;;;;;;5098490;28;20023;-48
2022/01/10 05:56:46;;;;;;;20.33;10.95;;;1.10;99.90;;;;;;5107951;28;20071;-47
2022/01/10 05:59:12;;;;;;;15.70;9.77;;;1.20;99.90;;;;;;5083378;28;20032;-48
2022/01/10 06:01:38;;;;;;;16.42;9.82;;;;;;;;;;5097538;28;20455;-47
2022/01/10 06:04:04;;;;;;;14.63;8.70;;;1.00;99.90;;;;;;5094540;28;20089;-45
2022/01/10 06:06:30;;;;;;;21.25;12.15;;;0.90;99.90;;;;;;5107317;28;20036;-48
2022/01/10 06:08:55;;;;;;;15.07;9.27;;;1.00;99.90;;;;;;5111046;28;20023;-49
2022/01/10 06:11:21;;;;;;;17.02;10.85;;;1.10;99.90;;;;;;5114031;28;20061;-49
2022/01/10 06:13:47;;;;;;;21.05;13.23;;;1.10;99.90;;;;;;5108855;28;20027;-50
2022/01/10 06:16:13;;;;;;;21.73;14.35;;;1.10;99.90;;;;;;5113750;28;20035;-49
2022/01/10 06:18:39;;;;;;;20.70;11.15;;;1.10;99.90;;;;;;5112008;28;20035;-50
2022/01/10 06:21:05;;;;;;;18.77;10.38;;;1.10;99.90;;;;;;5099622;28;20020;-49
2022/01/10 06:23:30;;;;;;;15.27;7.35;;;1.00;99.90;;;;;;5074746;28;20056;-48
2022/01/10 06:25:56;;;;;;;16.23;9.75;;;0.90;99.90;;;;;;5100606;28;20445;-49
2022/01/10 06:28:22;;;;;;;22.25;12.88;;;0.90;99.90;;;;;;5102005;28;20081;-49
2022/01/10 06:30:48;;;;;;;17.70;10.30;;;1.00;99.90;;;;;;5102697;28;20078;-48
2022/01/10 06:33:13;;;;;;;15.55;7.43;;;1.00;99.90;;;;;;5105929;28;20421;-46
2022/01/10 06:35:39;;;;;;;16.90;10.25;;;0.90;99.90;;;;;;5048407;28;20032;-49
2022/01/10 06:38:05;;;;;;;15.57;8.50;;;1.00;99.90;;;;;;5069888;28;20527;-47
2022/01/10 06:40:31;;;;;;;17.38;9.55;;;1.00;99.90;;;;;;5054192;28;20032;-47
2022/01/10 06:42:57;;;;;;;20.30;12.20;;;1.00;99.90;;;;;;5097524;28;20035;-47
2022/01/10 06:45:22;;;;;;;15.07;7.78;;;0.90;99.90;;;;;;5116118;28;20037;-47
2022/01/10 06:47:49;;;;;;;14.93;8.70;;;1.00;99.90;;;;;;5031986;28;20024;-47
2022/01/10 06:50:15;;;;;;;16.00;11.52;;;1.00;99.90;;;;;;5065084;28;20157;-47
2022/01/10 06:52:41;;;;;;;15.45;9.77;;;1.10;99.90;;;;;;5115552;28;20053;-47
2022/01/10 06:55:07;;;;;;;10.50;6.53;;;1.00;99.90;;;;;;5097285;28;20390;-47
2022/01/10 06:57:33;;;;;;;18.83;10.75;;;0.90;99.90;;;;;;5078199;28;20105;-47
2022/01/10 07:00:01;;;;;;;27.65;16.25;;;1.00;99.90;;;;;;5114498;28;20482;-46
2022/01/10 07:02:27;;;;;;;22.40;14.00;;;1.00;99.90;;;;;;5103927;28;20116;-47
2022/01/10 07:04:53;;;;;;;22.75;13.10;;;1.10;99.90;;;;;;5105936;28;20099;-46
2022/01/10 07:07:19;;;;;;;25.85;15.82;;;1.20;99.90;;;;;;5107253;28;20415;-47
2022/01/10 07:09:44;;;;;;;24.45;13.93;;;1.30;99.90;;;;;;5098107;28;20069;-47
2022/01/10 07:12:10;;;;;;;27.95;18.05;;;1.10;99.90;;;;;;5099396;28;20102;-47
2022/01/10 07:14:36;;;;;;;24.15;13.73;;;1.10;99.90;;;;;;5104574;28;20398;-46
2022/01/10 07:17:02;;;;;;;27.83;15.00;;;1.10;99.90;;;;;;5063700;28;20036;-47
2022/01/10 07:19:28;;;;;;;17.63;9.43;;;1.10;99.90;;;;;;5049956;28;20062;-47
2022/01/10 07:21:54;;;;;;;18.45;9.65;;;1.20;99.90;;;;;;5030700;28;20036;-48
2022/01/10 07:24:20;;;;;;;23.35;14.52;;;1.10;99.90;;;;;;5110829;28;20031;-50
2022/01/10 07:26:46;;;;;;;21.35;12.43;;;1.10;99.90;;;;;;5102590;28;20039;-47
2022/01/10 07:29:12;;;;;;;19.92;12.98;;;1.20;99.90;;;;;;5106568;28;20042;-47
2022/01/10 07:31:41;;;;;;;23.65;14.25;;;1.10;99.90;;;;;;5104192;28;20027;-48
2022/01/10 07:34:10;;;;;;;17.45;9.45;;;1.10;99.90;;;;;;5104415;28;20490;-51
2022/01/10 07:36:36;;;;;;;20.90;13.13;;;1.30;99.90;;;;;;5106160;28;20035;-52
2022/01/10 07:39:02;;;;;;;21.50;11.73;;;1.30;99.90;;;;;;5106411;28;20032;-57
2022/01/10 07:41:28;;;;;;;27.30;16.55;;;1.30;99.90;;;;;;5112395;28;20019;-52
2022/01/10 07:43:56;;;;;;;20.50;12.82;;;1.30;99.90;;;;;;5103688;28;20028;-50
2022/01/10 07:46:22;;;;;;;14.90;9.45;;;1.30;99.90;;;;;;5095949;28;20061;-48
2022/01/10 07:48:48;;;;;;;11.15;6.22;;;1.20;99.90;;;;;;5060629;28;20040;-49
2022/01/10 07:51:14;;;;;;;21.10;12.57;;;1.10;99.90;;;;;;5112622;28;20036;-49
2022/01/10 07:53:41;;;;;;;38.90;18.90;;;1.10;99.90;;;;;;5113918;28;20034;-49
2022/01/10 07:56:08;;;;;;;23.98;13.93;;;1.20;99.90;;;;;;5096815;28;20036;-49
2022/01/10 07:58:35;;;;;;;168.10;77.22;;;1.10;99.90;;;;;;5100848;28;21266;-53
2022/01/10 08:01:00;;;;;;;57.38;27.05;;;1.10;99.90;;;;;;5095893;28;20490;-49
2022/01/10 08:03:26;;;;;;;26.35;16.52;;;1.10;99.90;;;;;;5020150;28;20039;-49
2022/01/10 08:05:52;;;;;;;178.98;72.18;;;1.00;99.90;;;;;;5116012;28;20024;-49
2022/01/10 08:08:18;;;;;;;204.70;78.18;;;1.20;99.90;;;;;;5116195;28;20389;-49
2022/01/10 08:10:44;;;;;;;75.50;38.38;;;1.30;99.90;;;;;;5094281;28;20020;-50
2022/01/10 08:13:10;;;;;;;43.35;20.50;;;1.30;99.90;;;;;;5079326;28;20032;-50
2022/01/10 08:15:36;;;;;;;17.35;8.68;;;1.30;99.90;;;;;;5090027;28;20028;-51
2022/01/10 08:18:03;;;;;;;218.50;96.95;;;1.30;99.90;;;;;;5099311;28;20053;-49
2022/01/10 08:20:29;;;;;;;31.52;18.13;;;1.20;99.90;;;;;;5104765;28;20463;-49
2022/01/10 08:22:54;;;;;;;82.38;49.25;;;1.20;99.90;;;;;;5095138;28;20069;-50
2022/01/10 08:25:20;;;;;;;122.50;57.75;;;1.50;99.90;;;;;;5094958;28;20028;-50
2022/01/10 08:27:46;;;;;;;46.05;24.15;;;1.40;99.90;;;;;;5094464;28;20043;-50
2022/01/10 08:30:12;;;;;;;64.55;32.97;;;1.30;99.90;;;;;;5010207;28;20503;-49
2022/01/10 08:32:38;;;;;;;45.63;23.13;;;1.50;99.90;;;;;;5095418;28;20032;-49
2022/01/10 08:35:06;;;;;;;46.67;24.58;;;1.50;99.90;;;;;;5059044;28;20043;-49
2022/01/10 08:37:32;;;;;;;42.65;20.30;;;1.60;99.90;;;;;;5095245;28;20102;-49
2022/01/10 08:39:58;;;;;;;38.33;19.33;;;1.70;99.90;;;;;;5095032;28;20025;-48
2022/01/10 08:42:26;;;;;;;25.45;13.73;;;1.50;99.90;;;;;;5067130;28;20363;-50
2022/01/10 08:44:52;;;;;;;22.60;12.68;;;1.40;99.90;;;;;;5110960;28;20049;-48
2022/01/10 08:47:18;;;;;;;42.22;25.52;;;1.50;99.90;;;;;;5096571;28;20371;-50
2022/01/10 08:49:44;;;;;;;22.55;13.00;;;1.50;99.90;;;;;;5062564;28;20042;-50
2022/01/10 08:52:09;;;;;;;17.30;9.85;;;1.50;99.90;;;;;;5077873;28;20048;-49
2022/01/10 08:54:36;;;;;;;28.90;16.73;;;1.50;99.90;;;;;;5083938;28;20637;-49
2022/01/10 08:57:03;;;;;;;16.63;10.05;;;1.50;99.90;;;;;;5094291;28;20028;-49
2022/01/10 08:59:29;;;;;;;25.02;15.15;;;1.50;99.90;;;;;;5110444;28;20102;-49
2022/01/10 09:01:56;;;;;;;19.67;11.63;;;1.50;99.90;;;;;;5078407;28;20093;-49
2022/01/10 09:04:22;;;;;;;17.08;10.10;;;1.30;99.90;;;;;;5102165;28;20027;-49
2022/01/10 09:06:51;;;;;;;19.13;10.50;;;1.40;99.90;;;;;;5112857;28;20019;-49
2022/01/10 09:09:17;;;;;;;19.55;11.20;;;1.30;99.90;;;;;;5088133;28;20085;-49
2022/01/10 09:11:44;;;;;;;22.35;14.77;;;1.40;99.90;;;;;;5097301;28;20343;-50
2022/01/10 09:14:10;;;;;;;14.18;8.05;;;1.40;99.90;;;;;;5112369;28;20520;-50
2022/01/10 09:16:37;;;;;;;13.80;7.43;;;1.50;99.90;;;;;;5100846;28;20044;-50
2022/01/10 09:19:03;;;;;;;18.55;10.35;;;1.40;99.90;;;;;;5104047;28;20020;-51
2022/01/10 09:21:29;;;;;;;16.15;8.77;;;1.40;99.90;;;;;;5096613;28;20133;-51
2022/01/10 09:23:55;;;;;;;19.95;11.70;;;1.30;99.90;;;;;;5094038;28;20028;-50
2022/01/10 09:26:22;;;;;;;10.82;6.78;;;1.40;99.90;;;;;;5093869;28;20043;-50
2022/01/10 09:28:48;;;;;;;15.10;8.38;;;1.50;99.90;;;;;;5094150;28;20024;-50
2022/01/10 09:31:14;;;;;;;11.68;7.30;;;1.40;99.90;;;;;;5094055;28;20128;-49
2022/01/10 09:33:41;;;;;;;19.55;11.60;;;1.40;99.90;;;;;;5075076;28;20036;-51
2022/01/10 09:36:08;;;;;;;26.02;14.20;;;1.40;99.90;;;;;;5075175;28;20047;-50
2022/01/10 09:38:34;;;;;;;15.50;8.88;;;1.50;99.90;;;;;;5113682;28;20453;-49
2022/01/10 09:41:00;;;;;;;12.73;9.70;;;1.20;99.90;;;;;;5114423;28;20115;-49
2022/01/10 09:43:25;;;;;;;19.00;11.45;;;1.30;99.90;;;;;;5114426;28;20027;-49
2022/01/10 09:45:53;;;;;;;18.35;9.30;;;1.40;99.90;;;;;;5114384;28;20536;-51
2022/01/10 09:48:19;;;;;;;30.90;17.90;;;1.50;99.90;;;;;;5113782;28;20038;-51
2022/01/10 09:50:45;;;;;;;19.42;9.55;;;1.40;99.90;;;;;;5106790;28;20102;-50
2022/01/10 09:53:12;;;;;;;24.95;14.63;;;1.30;99.90;;;;;;5058996;28;20135;-51
2022/01/10 09:55:38;;;;;;;16.17;9.73;;;1.30;99.90;;;;;;5111654;28;20036;-50
2022/01/10 09:58:04;;;;;;;28.25;15.73;;;1.40;99.90;;;;;;5111745;28;20091;-50
2022/01/10 10:00:30;;;;;;;29.70;18.55;;;1.50;99.90;;;;;;5078356;28;20033;-49
2022/01/10 10:02:56;;;;;;;23.17;14.30;;;1.60;99.90;;;;;;5056384;28;20035;-50
2022/01/10 10:05:23;;;;;;;16.23;8.95;;;1.50;99.90;;;;;;5112596;28;20023;-51
2022/01/10 10:07:50;;;;;;;29.23;15.35;;;1.40;99.90;;;;;;5113019;28;20023;-51
2022/01/10 10:10:17;;;;;;;17.38;12.05;;;1.50;99.90;;;;;;5113438;28;20414;-51
2022/01/10 10:12:47;;;;;;;27.10;13.63;;;1.30;99.90;;;;;;5059724;28;20035;-50
2022/01/10 10:15:16;;;;;;;17.00;10.25;;;1.10;99.90;;;;;;5037780;28;20558;-50
2022/01/10 10:17:43;;;;;;;17.70;9.07;;;1.10;99.90;;;;;;5044058;28;20049;-49
2022/01/10 10:20:21;;;;;;;20.88;12.73;;;1.20;99.90;;;;;;4989915;28;20081;-49
2022/01/10 10:26:08;;;;;;;24.17;13.18;;;1.30;99.90;;;;;;5002577;28;20080;-50
2022/01/10 10:32:05;;;;;;;28.13;17.55;;;1.50;99.90;;;;;;5004338;28;20052;-52
2022/01/10 10:34:33;;;;;;;18.60;9.70;;;1.80;99.90;;;;;;4975302;28;20477;-51
2022/01/10 10:37:08;;;;;;;22.58;13.63;;;1.60;99.90;;;;;;5015473;28;20046;-51
2022/01/10 10:39:38;;;;;;;14.57;8.48;;;1.90;99.90;;;;;;5001286;28;20194;-51
2022/01/10 10:42:07;;;;;;;20.80;12.05;;;2.10;99.90;;;;;;5009953;28;20038;-49
2022/01/10 10:44:33;;;;;;;9.63;6.18;;;2.10;99.90;;;;;;5006638;28;20362;-50
2022/01/10 10:57:56;;;;;;;18.38;10.43;;;2.10;99.90;;;;;;5069882;28;20087;-51
2022/01/10 11:48:58;;;;;;;37.95;20.27;;;1.90;99.90;;;;;;4990982;28;20061;-50
2022/01/10 13:10:17;;;;;;;22.02;9.25;;;1.60;99.90;;;;;;4932820;29;20050;-50
2022/01/10 13:20:53;;;;;;;15.60;8.40;;;1.60;99.90;;;;;;4972928;28;20034;-50
2022/01/10 13:30:52;;;;;;;15.95;9.07;;;1.70;99.90;;;;;;5052438;28;20095;-49
2022/01/10 14:36:35;;;;;;;54.63;23.45;;;1.30;99.90;;;;;;5067462;28;20106;-53
2022/01/10 14:58:17;;;;;;;41.58;23.90;;;1.90;99.90;;;;;;5055803;28;20099;-52
2022/01/10 15:45:42;;;;;;;37.88;22.48;;;1.80;99.90;;;;;;5057869;28;20089;-53
2022/01/10 17:02:08;;;;;;;34.75;19.33;;;1.60;99.90;;;;;;5073376;28;20040;-47
2022/01/10 17:05:24;;;;;;;27.07;16.00;;;1.50;99.90;;;;;;5073171;28;20111;-53
2022/01/10 17:08:19;;;;;;;32.80;20.10;;;1.60;99.90;;;;;;5073238;28;20562;-52
2022/01/10 17:25:26;;;;;;;32.40;19.05;;;1.60;99.90;;;;;;5042104;28;20123;-53
2022/01/10 17:32:22;;;;;;;28.90;15.45;;;1.50;99.90;;;;;;5053156;28;20067;-54
2022/01/10 17:35:15;;;;;;;31.95;19.63;;;1.40;99.90;;;;;;5017499;28;20044;-53
2022/01/10 17:41:20;;;;;;;36.25;20.17;;;1.50;99.90;;;;;;5053135;28;20381;-52
2022/01/10 18:06:41;;;;;;;33.70;19.88;;;1.60;99.90;;;;;;5052284;28;20032;-53
2022/01/10 18:09:59;;;;;;;37.30;20.35;;;1.60;99.90;;;;;;5055182;28;20021;-54
2022/01/10 18:13:18;;;;;;;30.38;16.20;;;1.50;99.90;;;;;;5054585;28;20061;-52
2022/01/10 18:16:11;;;;;;;35.38;20.83;;;1.50;99.90;;;;;;5052346;28;20040;-52
2022/01/10 18:30:08;;;;;;;35.40;19.02;;;1.60;99.90;;;;;;5028302;28;20053;-52
2022/01/10 18:33:25;;;;;;;39.13;21.08;;;1.50;99.90;;;;;;5052044;28;20049;-54
2022/01/10 18:36:41;;;;;;;30.30;16.35;;;1.50;99.90;;;;;;5052205;28;20439;-54
2022/01/10 19:16:12;;;;;;;48.42;27.10;;;1.80;99.90;;;;;;5071908;28;20093;-52
2022/01/10 19:33:22;;;;;;;43.92;23.05;;;1.70;99.90;;;;;;4967088;28;20061;-53
2022/01/10 20:09:15;;;;;;;23.02;13.93;;;1.50;99.90;;;;;;5034210;28;20544;-51
2022/01/10 20:12:07;;;;;;;23.13;12.63;;;1.30;99.90;;;;;;5032833;28;20025;-53
2022/01/10 20:15:23;;;;;;;53.78;28.45;;;1.30;99.90;;;;;;5004878;28;20045;-54
2022/01/10 20:21:30;;;;;;;40.13;21.38;;;1.30;99.90;;;;;;5034121;28;20044;-51
2022/01/10 21:16:11;;;;;;;27.48;15.40;;;1.60;99.90;;;;;;5053231;28;20039;-51
2022/01/10 21:19:03;;;;;;;21.08;10.93;;;1.60;99.90;;;;;;5053819;28;20037;-51
2022/01/10 21:22:18;;;;;;;32.88;20.42;;;1.50;99.90;;;;;;5054358;28;20124;-54
2022/01/10 21:28:51;;;;;;;35.00;21.38;;;1.60;99.90;;;;;;5054427;28;20531;-50
2022/01/10 21:32:06;;;;;;;40.70;25.17;;;1.50;99.90;;;;;;5054533;28;20036;-51
2022/01/10 21:42:47;;;;;;;26.60;12.00;;;1.60;99.90;;;;;;5033138;28;20064;-53
2022/01/10 21:48:56;;;;;;;29.65;18.40;;;1.80;99.90;;;;;;5014485;28;20033;-52
2022/01/10 21:51:46;;;;;;;31.30;16.65;;;1.80;99.90;;;;;;5014348;28;20041;-52
2022/01/10 21:54:38;;;;;;;39.25;24.20;;;1.90;99.90;;;;;;5019191;28;20056;-51
2022/01/10 21:57:30;;;;;;;37.30;22.58;;;2.00;99.90;;;;;;5015211;28;20481;-51
2022/01/10 22:00:47;;;;;;;41.72;24.85;;;2.10;99.90;;;;;;5014407;28;20056;-51
2022/01/10 22:44:05;;;;;;;34.60;20.20;;;1.70;99.90;;;;;;5020722;28;20074;-53
2022/01/10 22:46:31;;;;;;;44.40;26.15;;;1.70;99.90;;;;;;5026573;28;20480;-52
2022/01/10 22:48:57;;;;;;;45.05;26.98;;;1.80;99.90;;;;;;5055031;28;20047;-52
2022/01/10 22:51:23;;;;;;;46.90;28.33;;;1.90;99.90;;;;;;5073155;28;20046;-52
2022/01/10 22:53:48;;;;;;;45.08;25.77;;;1.90;99.90;;;;;;5059754;28;20107;-54
2022/01/10 22:56:14;;;;;;;42.53;23.70;;;1.90;99.90;;;;;;5017872;28;20377;-53
2022/01/10 22:58:40;;;;;;;39.63;24.38;;;1.80;99.90;;;;;;5034694;28;20136;-51
2022/01/10 23:01:06;;;;;;;38.72;23.20;;;2.00;99.90;;;;;;5017974;28;20490;-52
2022/01/10 23:03:32;;;;;;;44.40;27.48;;;2.00;99.90;;;;;;5053151;28;20090;-53
2022/01/10 23:05:58;;;;;;;40.28;23.38;;;2.00;99.90;;;;;;5035017;28;20044;-53
2022/01/10 23:08:24;;;;;;;43.78;25.77;;;1.90;99.90;;;;;;5053154;28;20033;-55
2022/01/10 23:10:51;;;;;;;28.48;16.60;;;1.90;99.90;;;;;;5053155;28;20032;-54
2022/01/10 23:13:18;;;;;;;43.30;24.88;;;1.90;99.90;;;;;;5053181;28;20036;-54